Time;durP1;ratioP1;P1;durP2;ratioP2;P2;SDS_P1;SDS_P2;PMS_P1;PMS_P2;Temp;Humidity;BMP_temperature;BMP_pressure;BME280_temperature;BME280_humidity;BME280_pressure;Samples;Min_cycle;Max_cycle;Signal;HPM_P1;HPM_P2
2023/02/22 00:02:24;;;;;;;45.27;34.60;;;10.10;99.90;;;;;;5091789;28;20468;-74
2023/02/22 00:04:53;;;;;;;44.73;34.17;;;10.10;99.90;;;;;;5091882;28;20458;-74
2023/02/22 00:07:23;;;;;;;50.57;36.20;;;10.10;99.90;;;;;;5093162;28;20852;-74
2023/02/22 00:09:51;;;;;;;47.87;34.60;;;10.10;99.90;;;;;;5093518;28;20820;-73
2023/02/22 00:12:20;;;;;;;46.10;34.47;;;10.00;99.90;;;;;;5091591;28;20460;-73
2023/02/22 00:14:49;;;;;;;46.77;34.50;;;10.00;99.90;;;;;;5092942;28;20789;-73
2023/02/22 00:17:19;;;;;;;38.90;29.73;;;10.10;99.90;;;;;;5092886;28;20520;-73
2023/02/22 00:19:48;;;;;;;44.53;32.67;;;10.00;99.90;;;;;;5092928;28;20956;-74
2023/02/22 00:22:17;;;;;;;49.17;35.90;;;10.00;99.90;;;;;;5092647;28;20549;-74
2023/02/22 00:24:49;;;;;;;44.27;32.67;;;10.00;99.90;;;;;;5093077;28;20954;-74
2023/02/22 00:27:17;;;;;;;42.43;31.47;;;10.00;99.90;;;;;;5092821;28;20420;-73
2023/02/22 00:29:46;;;;;;;43.93;33.23;;;10.00;99.90;;;;;;5091468;28;20865;-74
2023/02/22 00:32:14;;;;;;;48.13;34.73;;;10.00;99.90;;;;;;5095694;28;20948;-74
2023/02/22 00:34:43;;;;;;;46.67;33.27;;;10.00;99.90;;;;;;5095049;28;21017;-74
2023/02/22 00:37:11;;;;;;;50.27;37.00;;;10.00;99.90;;;;;;5094980;28;20448;-75
2023/02/22 00:39:40;;;;;;;41.60;33.00;;;10.00;99.90;;;;;;5094980;28;20444;-74
2023/02/22 00:42:09;;;;;;;41.87;32.47;;;10.00;99.90;;;;;;5094736;28;20468;-74
2023/02/22 00:44:38;;;;;;;44.80;33.87;;;10.00;99.90;;;;;;5096090;28;20432;-74
2023/02/22 00:47:07;;;;;;;43.03;31.20;;;10.00;99.90;;;;;;5096085;28;20428;-74
2023/02/22 00:49:36;;;;;;;40.10;31.33;;;10.00;99.90;;;;;;5096109;28;20443;-74
2023/02/22 00:52:04;;;;;;;40.17;31.33;;;10.00;99.90;;;;;;5095912;28;20462;-74
2023/02/22 00:54:33;;;;;;;40.93;31.30;;;10.00;99.90;;;;;;5094659;28;20440;-74
2023/02/22 00:57:03;;;;;;;41.83;32.40;;;10.00;99.90;;;;;;5096004;28;20870;-74
2023/02/22 00:59:33;;;;;;;40.60;30.10;;;9.90;99.90;;;;;;5094539;28;20976;-74
2023/02/22 01:02:01;;;;;;;36.33;27.77;;;9.90;99.90;;;;;;5094624;28;20828;-74
2023/02/22 01:04:30;;;;;;;35.70;29.73;;;9.90;99.90;;;;;;5095968;28;20925;-74
2023/02/22 01:06:59;;;;;;;37.43;29.80;;;9.90;99.90;;;;;;5095592;28;20459;-74
2023/02/22 01:09:28;;;;;;;35.17;28.57;;;9.90;99.90;;;;;;5095963;28;20523;-74
2023/02/22 01:11:57;;;;;;;40.07;31.10;;;9.90;99.90;;;;;;5094291;28;20570;-74
2023/02/22 01:14:27;;;;;;;35.47;28.30;;;9.90;99.90;;;;;;5095648;28;20858;-74
2023/02/22 01:16:57;;;;;;;39.57;29.60;;;9.90;99.90;;;;;;5094249;28;20483;-74
2023/02/22 01:19:25;;;;;;;36.93;28.20;;;9.90;99.90;;;;;;5094297;28;20436;-74
2023/02/22 01:21:54;;;;;;;36.33;28.77;;;9.90;99.90;;;;;;5094076;28;20464;-73
2023/02/22 01:24:22;;;;;;;35.90;28.70;;;9.90;99.90;;;;;;5094099;28;20468;-74
2023/02/22 01:26:52;;;;;;;38.77;29.83;;;9.90;99.90;;;;;;5095303;28;20443;-74
2023/02/22 01:29:21;;;;;;;35.70;29.00;;;9.90;99.90;;;;;;5094332;28;20991;-74
2023/02/22 01:31:54;;;;;;;40.83;30.60;;;9.90;99.90;;;;;;5095072;28;20459;-74
2023/02/22 01:34:25;;;;;;;37.83;29.30;;;9.90;99.90;;;;;;5095232;28;20417;-74
2023/02/22 01:36:53;;;;;;;37.93;29.97;;;9.80;99.90;;;;;;5095716;28;20417;-74
2023/02/22 01:39:22;;;;;;;37.63;29.57;;;9.80;99.90;;;;;;5093746;28;20441;-74
2023/02/22 01:41:52;;;;;;;40.30;31.47;;;9.80;99.90;;;;;;5093483;28;20492;-74
2023/02/22 01:44:28;;;;;;;39.17;30.73;;;9.80;99.90;;;;;;5093675;28;20463;-74
2023/02/22 01:47:01;;;;;;;39.97;31.90;;;9.80;99.90;;;;;;5093652;28;20452;-73
2023/02/22 01:49:37;;;;;;;40.83;33.00;;;9.80;99.90;;;;;;5094863;28;20917;-74
2023/02/22 01:52:09;;;;;;;41.73;32.80;;;9.80;99.90;;;;;;5095132;28;20451;-74
2023/02/22 01:54:42;;;;;;;41.83;32.83;;;9.70;99.90;;;;;;5093792;28;20486;-74
2023/02/22 01:57:22;;;;;;;39.83;31.60;;;9.70;99.90;;;;;;5095050;28;20412;-74
2023/02/22 01:59:54;;;;;;;37.60;30.43;;;9.70;99.90;;;;;;5093437;28;20955;-74
2023/02/22 02:02:24;;;;;;;41.40;32.50;;;9.70;99.90;;;;;;5095167;28;20452;-74
2023/02/22 02:04:58;;;;;;;42.30;34.50;;;9.70;99.90;;;;;;5093345;28;20470;-74
2023/02/22 02:07:28;;;;;;;40.40;32.27;;;9.70;99.90;;;;;;5093319;28;20836;-74
2023/02/22 02:09:59;;;;;;;40.50;32.20;;;9.70;99.90;;;;;;5093254;28;20444;-74
2023/02/22 02:12:30;;;;;;;42.03;33.33;;;9.70;99.90;;;;;;5093154;28;20812;-74
2023/02/22 02:15:17;;;;;;;39.97;32.57;;;9.70;99.90;;;;;;5093196;28;20490;-74
2023/02/22 02:17:45;;;;;;;40.90;32.00;;;9.70;99.90;;;;;;5093116;28;20440;-74
2023/02/22 02:20:24;;;;;;;39.10;32.50;;;9.70;99.90;;;;;;5092993;28;20602;-74
2023/02/22 02:22:59;;;;;;;42.50;34.50;;;9.70;99.90;;;;;;5094258;28;20420;-74
2023/02/22 02:26:02;;;;;;;40.00;33.00;;;9.70;99.90;;;;;;5093277;28;20484;-74
2023/02/22 02:29:08;;;;;;;42.40;35.00;;;9.70;99.90;;;;;;5094209;28;20439;-74
2023/02/22 02:32:00;;;;;;;41.90;34.67;;;9.70;99.90;;;;;;5092194;28;20526;-73
2023/02/22 02:34:35;;;;;;;38.53;31.90;;;9.70;99.90;;;;;;5094057;28;20424;-73
2023/02/22 02:37:11;;;;;;;40.13;32.57;;;9.60;99.90;;;;;;5094550;28;20424;-73
2023/02/22 02:39:48;;;;;;;40.87;33.27;;;9.60;99.90;;;;;;5092750;28;20501;-73
2023/02/22 02:42:21;;;;;;;39.97;32.03;;;9.60;99.90;;;;;;5092577;28;20570;-74
2023/02/22 02:44:54;;;;;;;41.40;32.80;;;9.60;99.90;;;;;;5092533;28;20460;-74
2023/02/22 02:47:28;;;;;;;43.23;33.37;;;9.60;99.90;;;;;;5092564;28;20510;-73
2023/02/22 02:50:02;;;;;;;37.00;30.90;;;9.60;99.90;;;;;;5093826;28;20420;-74
2023/02/22 02:52:33;;;;;;;39.50;32.67;;;9.60;99.90;;;;;;5092387;28;20456;-74
2023/02/22 02:55:06;;;;;;;42.50;33.63;;;9.60;99.90;;;;;;5093546;28;20942;-74
2023/02/22 02:57:34;;;;;;;41.20;32.33;;;9.60;99.90;;;;;;5092457;28;20491;-74
2023/02/22 03:00:21;;;;;;;41.57;32.57;;;9.60;99.90;;;;;;5093603;28;20437;-73
2023/02/22 03:03:05;;;;;;;38.70;32.60;;;9.60;99.90;;;;;;5092356;28;20447;-74
2023/02/22 03:05:58;;;;;;;41.57;34.27;;;9.60;99.90;;;;;;5093906;28;20436;-74
2023/02/22 03:08:34;;;;;;;40.93;31.70;;;9.60;99.90;;;;;;5093614;28;20523;-74
2023/02/22 03:11:13;;;;;;;42.03;33.70;;;9.60;99.90;;;;;;5093448;28;20456;-74
2023/02/22 03:13:55;;;;;;;44.97;35.97;;;9.50;99.90;;;;;;5092538;28;20440;-74
2023/02/22 03:16:32;;;;;;;43.03;32.93;;;9.50;99.90;;;;;;5092230;28;20450;-74
2023/02/22 03:19:08;;;;;;;41.67;33.93;;;9.50;99.90;;;;;;5094059;28;20418;-74
2023/02/22 03:21:45;;;;;;;38.37;31.40;;;9.50;99.90;;;;;;5092114;28;20471;-74
2023/02/22 03:24:19;;;;;;;40.47;32.53;;;9.50;99.90;;;;;;5075994;28;20468;-73
2023/02/22 03:26:55;;;;;;;39.23;31.93;;;9.50;99.90;;;;;;5092127;28;20972;-73
2023/02/22 03:29:27;;;;;;;41.50;32.87;;;9.50;99.90;;;;;;5092089;28;20447;-74
2023/02/22 03:32:00;;;;;;;39.63;31.47;;;9.50;99.90;;;;;;5092074;28;20995;-74
2023/02/22 03:34:39;;;;;;;39.67;31.93;;;9.50;99.90;;;;;;5092081;28;20451;-74
2023/02/22 03:37:14;;;;;;;41.00;33.10;;;9.50;99.90;;;;;;5092102;28;20432;-73
2023/02/22 03:39:46;;;;;;;40.57;32.07;;;9.50;99.90;;;;;;5092247;28;20455;-74
2023/02/22 03:42:20;;;;;;;40.10;32.50;;;9.50;99.90;;;;;;5091920;28;20475;-74
2023/02/22 03:44:53;;;;;;;40.17;31.73;;;9.50;99.90;;;;;;5091837;28;20456;-73
2023/02/22 03:47:27;;;;;;;42.80;33.80;;;9.50;99.90;;;;;;5093500;28;20427;-74
2023/02/22 03:50:05;;;;;;;40.17;32.30;;;9.50;99.90;;;;;;5092218;28;20550;-74
2023/02/22 03:52:36;;;;;;;40.23;31.90;;;9.50;99.90;;;;;;5091884;28;20863;-74
2023/02/22 03:55:10;;;;;;;38.40;31.77;;;9.50;99.90;;;;;;5092690;28;20513;-74
2023/02/22 03:57:43;;;;;;;36.27;30.43;;;9.40;99.90;;;;;;5091805;28;20440;-74
2023/02/22 04:00:15;;;;;;;36.20;29.10;;;9.50;99.90;;;;;;5091756;28;20476;-74
2023/02/22 04:02:44;;;;;;;43.37;31.50;;;9.40;99.90;;;;;;5091786;28;20444;-74
2023/02/22 04:05:20;;;;;;;38.33;31.13;;;9.40;99.90;;;;;;5091804;28;20455;-74
2023/02/22 04:07:49;;;;;;;42.53;33.43;;;9.40;99.90;;;;;;5095648;28;20448;-74
2023/02/22 04:10:17;;;;;;;45.40;36.60;;;9.30;99.90;;;;;;5095430;28;20448;-74
2023/02/22 04:12:46;;;;;;;48.00;37.50;;;9.30;99.90;;;;;;5095532;28;20487;-74
2023/02/22 04:15:16;;;;;;;40.93;33.07;;;9.30;99.90;;;;;;5095422;28;20432;-74
2023/02/22 04:17:45;;;;;;;43.20;33.30;;;9.30;99.90;;;;;;5095443;28;20481;-74
2023/02/22 04:20:18;;;;;;;47.07;36.70;;;8.70;99.90;;;;;;5095320;28;20785;-74
2023/02/22 04:23:01;;;;;;;49.97;36.73;;;9.20;99.90;;;;;;5095551;28;20458;-74
2023/02/22 04:25:30;;;;;;;47.87;37.90;;;9.20;99.90;;;;;;5095814;28;20467;-74
2023/02/22 04:28:05;;;;;;;52.63;37.73;;;9.20;99.90;;;;;;5095532;28;20957;-74
2023/02/22 04:30:43;;;;;;;51.43;37.67;;;9.20;99.90;;;;;;5095983;28;20503;-74
2023/02/22 04:33:14;;;;;;;57.70;37.47;;;9.20;99.90;;;;;;5095972;28;20436;-74
2023/02/22 04:35:43;;;;;;;46.67;35.40;;;9.10;99.90;;;;;;5096314;28;20442;-74
2023/02/22 04:38:13;;;;;;;47.47;35.37;;;9.10;99.90;;;;;;5095056;28;20436;-73
2023/02/22 04:40:42;;;;;;;49.37;37.30;;;9.10;99.90;;;;;;5095720;28;20995;-73
2023/02/22 04:43:10;;;;;;;48.83;36.60;;;9.10;99.90;;;;;;5096185;28;20528;-73
2023/02/22 04:45:40;;;;;;;45.67;34.40;;;9.10;99.90;;;;;;5094736;28;20988;-74
2023/02/22 04:48:09;;;;;;;47.00;35.97;;;9.00;99.90;;;;;;5096348;28;20801;-74
2023/02/22 04:50:38;;;;;;;45.67;35.00;;;9.00;99.90;;;;;;5094716;28;21055;-74
2023/02/22 04:53:06;;;;;;;48.37;35.70;;;9.00;99.90;;;;;;5094713;28;20448;-74
2023/02/22 04:55:38;;;;;;;45.47;35.10;;;9.00;99.90;;;;;;5094700;28;20946;-74
2023/02/22 04:58:07;;;;;;;49.83;36.60;;;9.00;99.90;;;;;;5095222;28;20481;-74
2023/02/22 05:00:37;;;;;;;49.43;37.47;;;9.00;99.90;;;;;;5094742;28;20475;-74
2023/02/22 05:03:07;;;;;;;47.40;37.03;;;9.00;99.90;;;;;;5094589;28;20494;-74
2023/02/22 05:05:36;;;;;;;53.10;39.57;;;8.90;99.90;;;;;;5094233;28;20575;-74
2023/02/22 05:08:04;;;;;;;47.23;37.83;;;8.90;99.90;;;;;;5094436;28;20428;-74
2023/02/22 05:10:33;;;;;;;46.87;36.87;;;8.90;99.90;;;;;;5095588;28;20494;-74
2023/02/22 05:13:02;;;;;;;53.83;39.30;;;8.90;99.90;;;;;;5094300;28;20487;-74
2023/02/22 05:15:31;;;;;;;50.83;39.80;;;8.90;99.90;;;;;;5095519;28;20486;-74
2023/02/22 05:18:00;;;;;;;54.73;41.00;;;8.90;99.90;;;;;;5095034;28;20435;-74
2023/02/22 05:20:31;;;;;;;51.50;40.47;;;8.90;99.90;;;;;;5095364;28;20443;-73
2023/02/22 05:23:01;;;;;;;53.40;39.87;;;8.90;99.90;;;;;;5095666;28;20508;-74
2023/02/22 05:25:29;;;;;;;51.57;39.50;;;8.90;99.90;;;;;;5094038;28;20468;-74
2023/02/22 05:28:02;;;;;;;58.67;43.93;;;8.90;99.90;;;;;;5095232;28;20435;-74
2023/02/22 05:30:33;;;;;;;58.10;42.67;;;8.80;99.90;;;;;;5095242;28;20980;-74
2023/02/22 05:33:02;;;;;;;50.70;39.20;;;8.80;99.90;;;;;;5093950;28;20433;-74
2023/02/22 05:35:30;;;;;;;60.77;44.53;;;8.80;99.90;;;;;;5095141;28;20460;-74
2023/02/22 05:38:00;;;;;;;56.47;40.17;;;8.80;99.90;;;;;;5095117;28;20497;-74
2023/02/22 05:40:30;;;;;;;52.30;40.40;;;8.80;99.90;;;;;;5093721;28;20444;-74
2023/02/22 05:42:59;;;;;;;52.37;40.03;;;8.80;99.90;;;;;;5093771;28;20443;-74
2023/02/22 05:45:28;;;;;;;55.27;40.87;;;8.80;99.90;;;;;;5093634;28;20569;-73
2023/02/22 05:47:58;;;;;;;51.37;38.00;;;8.80;99.90;;;;;;5094998;28;20476;-73
2023/02/22 05:50:27;;;;;;;52.83;38.60;;;8.80;99.90;;;;;;5094851;28;20861;-73
2023/02/22 05:52:55;;;;;;;54.60;38.67;;;8.80;99.90;;;;;;5093603;28;20526;-73
2023/02/22 05:55:24;;;;;;;51.33;36.57;;;8.70;99.90;;;;;;5093489;28;20443;-73
2023/02/22 05:57:53;;;;;;;50.87;35.67;;;8.70;99.90;;;;;;5095019;28;20463;-73
2023/02/22 06:00:24;;;;;;;47.73;35.17;;;8.70;99.90;;;;;;5094605;28;20436;-73
2023/02/22 06:02:56;;;;;;;52.53;36.20;;;8.70;99.90;;;;;;5093473;28;20807;-73
2023/02/22 06:05:26;;;;;;;52.73;36.40;;;8.60;99.90;;;;;;5093052;28;20475;-74
2023/02/22 06:07:55;;;;;;;52.60;37.50;;;8.60;99.90;;;;;;5094966;28;20416;-73
2023/02/22 06:10:23;;;;;;;52.60;36.50;;;8.60;99.90;;;;;;5093135;28;20811;-74
2023/02/22 06:12:52;;;;;;;53.53;38.90;;;8.60;99.90;;;;;;5093166;28;20452;-74
2023/02/22 06:15:22;;;;;;;52.03;34.83;;;8.60;99.90;;;;;;5093156;28;20859;-74
2023/02/22 06:17:52;;;;;;;52.40;35.00;;;8.50;99.90;;;;;;5093154;28;20433;-74
2023/02/22 06:20:23;;;;;;;49.67;34.10;;;8.50;99.90;;;;;;5093350;28;20456;-74
2023/02/22 06:22:54;;;;;;;51.80;35.37;;;8.50;99.90;;;;;;5093135;28;20476;-74
2023/02/22 06:25:25;;;;;;;46.13;34.27;;;8.50;99.90;;;;;;5092927;28;20551;-75
2023/02/22 06:27:54;;;;;;;50.93;35.57;;;8.50;99.90;;;;;;5094078;28;20477;-74
2023/02/22 06:30:24;;;;;;;51.37;34.97;;;8.40;99.90;;;;;;5094059;28;20431;-75
2023/02/22 06:32:53;;;;;;;54.10;39.07;;;8.40;99.90;;;;;;5094074;28;20529;-75
2023/02/22 06:35:21;;;;;;;46.80;31.90;;;8.40;99.90;;;;;;5094033;28;20431;-75
2023/02/22 06:37:49;;;;;;;42.57;30.80;;;8.40;99.90;;;;;;5094582;28;20437;-75
2023/02/22 06:40:19;;;;;;;39.90;29.07;;;8.40;99.90;;;;;;5094147;28;20811;-75
2023/02/22 06:42:48;;;;;;;47.77;31.07;;;8.30;99.90;;;;;;5092653;28;20543;-75
2023/02/22 06:45:18;;;;;;;40.80;29.77;;;8.30;99.90;;;;;;5093943;28;21028;-75
2023/02/22 06:47:46;;;;;;;43.43;31.10;;;8.30;99.90;;;;;;5093878;28;20433;-75
2023/02/22 06:50:21;;;;;;;41.10;30.67;;;8.30;99.90;;;;;;5092490;28;20564;-75
2023/02/22 06:52:49;;;;;;;40.27;29.70;;;8.30;99.90;;;;;;5094100;28;20416;-75
2023/02/22 06:55:20;;;;;;;41.27;30.40;;;8.30;99.90;;;;;;5093768;28;20436;-75
2023/02/22 06:57:48;;;;;;;41.40;29.97;;;8.20;99.90;;;;;;5092486;28;20447;-75
2023/02/22 07:00:18;;;;;;;40.57;29.87;;;8.30;99.90;;;;;;5093679;28;20808;-74
2023/02/22 07:02:47;;;;;;;36.07;28.50;;;8.20;99.90;;;;;;5093761;28;20443;-75
2023/02/22 07:05:17;;;;;;;38.27;28.70;;;8.20;99.90;;;;;;5093889;28;20488;-74
2023/02/22 07:07:46;;;;;;;41.70;30.03;;;8.20;99.90;;;;;;5094690;28;20432;-74
2023/02/22 07:10:22;;;;;;;39.30;29.07;;;8.30;99.90;;;;;;5096781;28;20445;-74
2023/02/22 07:12:51;;;;;;;41.40;29.63;;;8.30;99.90;;;;;;5089145;22;20986;-74
2023/02/22 07:15:21;;;;;;;38.67;29.17;;;8.30;99.90;;;;;;5052228;28;20449;-74
2023/02/22 07:17:49;;;;;;;34.73;27.00;;;8.30;99.90;;;;;;5054123;28;20433;-74
2023/02/22 07:20:19;;;;;;;35.13;27.20;;;8.30;99.90;;;;;;5052039;28;20826;-74
2023/02/22 07:22:48;;;;;;;36.90;28.13;;;8.30;99.90;;;;;;5053525;28;20449;-74
2023/02/22 07:25:17;;;;;;;37.87;27.63;;;8.30;99.90;;;;;;5054233;28;20481;-74
2023/02/22 07:27:47;;;;;;;36.23;28.77;;;8.30;99.90;;;;;;5052077;28;20449;-74
2023/02/22 07:30:17;;;;;;;36.77;28.57;;;8.30;99.90;;;;;;5053824;28;20447;-74
2023/02/22 07:32:46;;;;;;;36.37;27.73;;;8.40;99.90;;;;;;5053828;28;20478;-74
2023/02/22 07:35:16;;;;;;;36.13;28.37;;;8.30;99.90;;;;;;5053395;28;20496;-74
2023/02/22 07:37:44;;;;;;;39.30;28.20;;;8.40;99.90;;;;;;5053800;28;20428;-74
2023/02/22 07:40:13;;;;;;;40.43;30.53;;;8.40;99.90;;;;;;5053352;28;20825;-74
2023/02/22 07:42:53;;;;;;;38.10;29.23;;;8.40;99.90;;;;;;5057363;28;20441;-74
2023/02/22 07:45:22;;;;;;;38.47;28.40;;;8.40;99.90;;;;;;5055781;28;20441;-74
2023/02/22 07:47:53;;;;;;;39.00;28.13;;;8.40;99.90;;;;;;5056914;28;20826;-74
2023/02/22 07:50:22;;;;;;;33.50;26.80;;;8.50;99.90;;;;;;5057096;28;20418;-74
2023/02/22 07:52:53;;;;;;;35.00;27.90;;;8.50;99.90;;;;;;5055889;28;20469;-74
2023/02/22 07:55:23;;;;;;;32.93;26.77;;;8.50;99.90;;;;;;5056857;28;20523;-75
2023/02/22 07:57:56;;;;;;;37.63;26.30;;;8.60;99.90;;;;;;5056828;28;20857;-74
2023/02/22 08:00:27;;;;;;;34.27;25.97;;;8.50;99.90;;;;;;5056899;28;20483;-74
2023/02/22 08:02:56;;;;;;;31.47;23.80;;;8.60;99.90;;;;;;5055543;28;20455;-74
2023/02/22 08:05:26;;;;;;;32.23;24.53;;;8.50;99.90;;;;;;5056874;28;20930;-74
2023/02/22 08:07:55;;;;;;;32.77;24.70;;;8.60;99.90;;;;;;5056930;28;20465;-74
2023/02/22 08:10:25;;;;;;;37.07;26.00;;;8.60;99.90;;;;;;5056526;28;20976;-74
2023/02/22 08:12:55;;;;;;;30.93;24.60;;;8.60;99.90;;;;;;5055134;28;20508;-74
2023/02/22 08:15:27;;;;;;;29.10;23.20;;;8.60;99.90;;;;;;5055209;28;20437;-74
2023/02/22 08:17:55;;;;;;;31.93;25.27;;;8.60;99.90;;;;;;5056413;28;20415;-74
2023/02/22 08:20:24;;;;;;;29.30;24.00;;;8.60;99.90;;;;;;5055054;28;20495;-74
2023/02/22 08:22:52;;;;;;;33.37;24.40;;;8.60;99.90;;;;;;5056326;28;20497;-74
2023/02/22 08:25:24;;;;;;;27.53;22.40;;;8.60;99.90;;;;;;5055074;28;20811;-74
2023/02/22 08:27:59;;;;;;;34.33;25.00;;;8.60;99.90;;;;;;5056458;28;20468;-74
2023/02/22 08:30:29;;;;;;;31.53;23.57;;;8.60;99.90;;;;;;5056207;28;20428;-74
2023/02/22 08:32:58;;;;;;;30.03;23.57;;;8.60;99.90;;;;;;5054862;28;20503;-74
2023/02/22 08:35:27;;;;;;;32.80;25.63;;;8.60;99.90;;;;;;5056071;28;20495;-74
2023/02/22 08:37:58;;;;;;;31.17;25.10;;;8.60;99.90;;;;;;5056159;28;20442;-74
2023/02/22 08:40:29;;;;;;;30.90;23.80;;;8.60;99.90;;;;;;5055998;28;20418;-74
2023/02/22 08:43:00;;;;;;;31.63;25.17;;;8.60;99.90;;;;;;5054739;28;20446;-74
2023/02/22 08:45:29;;;;;;;30.23;24.30;;;8.60;99.90;;;;;;5055901;28;20895;-74
2023/02/22 08:47:58;;;;;;;31.70;24.13;;;8.60;99.90;;;;;;5054611;28;20466;-74
2023/02/22 08:50:28;;;;;;;34.77;25.63;;;8.60;99.90;;;;;;5054413;28;20500;-74
2023/02/22 08:52:58;;;;;;;31.77;25.27;;;8.60;99.90;;;;;;5055043;28;20501;-74
2023/02/22 08:55:29;;;;;;;34.10;25.30;;;8.60;99.90;;;;;;5055825;28;20433;-74
2023/02/22 08:58:00;;;;;;;33.10;25.00;;;8.60;99.90;;;;;;5056090;28;20428;-74
2023/02/22 09:00:31;;;;;;;35.60;27.80;;;8.60;99.90;;;;;;5054316;28;20446;-74
2023/02/22 09:03:00;;;;;;;34.57;27.00;;;8.60;99.90;;;;;;5056106;28;20453;-74
2023/02/22 09:05:28;;;;;;;35.30;26.90;;;8.60;99.90;;;;;;5054198;28;20812;-74
2023/02/22 09:07:59;;;;;;;32.13;26.00;;;8.70;99.90;;;;;;5055343;28;20492;-74
2023/02/22 09:10:30;;;;;;;31.43;24.60;;;8.70;99.90;;;;;;5055349;28;20434;-74
2023/02/22 09:13:01;;;;;;;33.73;27.40;;;8.70;99.90;;;;;;5055365;28;20954;-74
2023/02/22 09:15:29;;;;;;;37.00;27.07;;;8.80;99.90;;;;;;5055694;28;20422;-74
2023/02/22 09:17:58;;;;;;;34.50;26.60;;;8.80;99.90;;;;;;5055307;28;20438;-74
2023/02/22 09:20:27;;;;;;;34.27;26.40;;;8.80;99.90;;;;;;5053921;28;20484;-74
2023/02/22 09:22:55;;;;;;;34.97;26.80;;;8.90;99.90;;;;;;5055266;28;20452;-74
2023/02/22 09:25:23;;;;;;;32.47;26.90;;;8.90;99.90;;;;;;5055208;28;20442;-74
2023/02/22 09:27:53;;;;;;;33.10;27.00;;;9.00;99.90;;;;;;5055050;28;20499;-74
2023/02/22 09:30:30;;;;;;;38.37;27.70;;;9.00;99.90;;;;;;5055017;28;20430;-74
2023/02/22 09:33:01;;;;;;;33.00;26.17;;;9.10;99.90;;;;;;5053828;28;20946;-74
2023/02/22 09:35:30;;;;;;;34.27;26.50;;;9.20;99.90;;;;;;5053790;28;20449;-74
2023/02/22 09:38:00;;;;;;;33.63;26.23;;;9.20;99.90;;;;;;5053655;28;21112;-74
2023/02/22 09:40:30;;;;;;;33.90;26.13;;;9.30;99.90;;;;;;5054903;28;20887;-74
2023/02/22 09:43:15;;;;;;;34.87;27.37;;;9.30;99.90;;;;;;5055428;28;20430;-74
2023/02/22 09:45:56;;;;;;;31.07;26.67;;;9.40;99.90;;;;;;5053608;28;20448;-74
2023/02/22 09:48:25;;;;;;;32.07;25.77;;;9.50;99.90;;;;;;5054754;28;20454;-74
2023/02/22 09:50:59;;;;;;;30.87;27.00;;;9.50;99.90;;;;;;5054636;28;20508;-75
2023/02/22 09:53:31;;;;;;;29.40;25.30;;;9.60;99.90;;;;;;5054925;28;20425;-74
2023/02/22 09:56:03;;;;;;;33.47;25.00;;;9.70;99.90;;;;;;5053433;28;20519;-74
2023/02/22 09:58:34;;;;;;;33.03;25.97;;;9.70;99.90;;;;;;5054607;28;20454;-74
2023/02/22 10:01:16;;;;;;;29.47;23.90;;;9.70;99.90;;;;;;5053127;28;20467;-74
2023/02/22 10:03:51;;;;;;;29.13;24.30;;;9.80;99.90;;;;;;5054324;28;20423;-74
2023/02/22 10:06:23;;;;;;;28.23;23.90;;;9.80;99.90;;;;;;5054688;28;20949;-74
2023/02/22 10:08:55;;;;;;;31.70;26.40;;;9.90;99.90;;;;;;5053062;28;20557;-74
2023/02/22 10:11:47;;;;;;;31.10;24.30;;;9.80;99.90;;;;;;5054253;28;20454;-75
2023/02/22 10:14:46;;;;;;;28.33;24.60;;;9.90;99.90;;;;;;5052689;28;20454;-74
2023/02/22 10:17:29;;;;;;;28.00;24.13;;;9.90;99.90;;;;;;5053033;28;20430;-74
2023/02/22 10:20:14;;;;;;;28.87;23.47;;;9.90;99.90;;;;;;5053020;28;20476;-74
2023/02/22 10:23:06;;;;;;;26.90;23.90;;;9.90;99.90;;;;;;5052875;28;20820;-75
2023/02/22 10:25:37;;;;;;;29.60;23.33;;;10.00;99.90;;;;;;5054018;28;20422;-74
2023/02/22 10:28:13;;;;;;;27.80;23.20;;;10.00;99.90;;;;;;5053235;28;20461;-74
2023/02/22 10:30:45;;;;;;;32.37;24.60;;;10.10;99.90;;;;;;5053923;28;20464;-74
2023/02/22 10:33:21;;;;;;;28.10;23.80;;;10.10;99.90;;;;;;5053905;28;20417;-75
2023/02/22 10:35:52;;;;;;;27.70;23.83;;;10.20;99.90;;;;;;5052798;28;20453;-74
2023/02/22 10:38:23;;;;;;;29.80;23.60;;;10.10;99.90;;;;;;5053915;28;20432;-75
2023/02/22 10:40:55;;;;;;;27.20;22.87;;;10.10;99.90;;;;;;5054045;28;20894;-75
2023/02/22 10:43:24;;;;;;;30.20;23.63;;;10.20;99.90;;;;;;5053844;28;20426;-75
2023/02/22 10:45:56;;;;;;;28.67;23.70;;;10.30;99.90;;;;;;5052399;28;20457;-75
2023/02/22 10:48:29;;;;;;;30.07;23.03;;;10.30;99.90;;;;;;5052357;28;20511;-74
2023/02/22 10:51:00;;;;;;;26.40;21.60;;;10.40;99.90;;;;;;5053839;28;20863;-74
2023/02/22 10:53:29;;;;;;;27.57;21.53;;;10.40;99.90;;;;;;5053866;28;20760;-75
2023/02/22 10:56:11;;;;;;;29.70;23.57;;;10.50;99.90;;;;;;5053386;28;20433;-75
2023/02/22 10:58:46;;;;;;;27.63;22.23;;;10.50;99.90;;;;;;5052270;28;20482;-75
2023/02/22 11:01:24;;;;;;;28.90;24.17;;;10.60;99.90;;;;;;5053359;28;20461;-75
2023/02/22 11:04:10;;;;;;;27.20;22.77;;;10.60;99.90;;;;;;5053847;28;20430;-75
2023/02/22 11:06:39;;;;;;;25.97;22.50;;;10.70;99.90;;;;;;5052084;28;20450;-75
2023/02/22 11:09:11;;;;;;;26.63;21.60;;;10.70;99.90;;;;;;5052071;28;20496;-75
2023/02/22 11:11:41;;;;;;;30.93;23.37;;;10.80;99.90;;;;;;5053509;28;20523;-75
2023/02/22 11:14:11;;;;;;;27.87;22.60;;;10.80;99.90;;;;;;5052887;28;20454;-75
2023/02/22 11:16:42;;;;;;;29.50;22.50;;;10.90;99.90;;;;;;5053231;28;20469;-75
2023/02/22 11:19:21;;;;;;;29.07;23.60;;;10.90;99.90;;;;;;5053291;28;20793;-75
2023/02/22 11:21:51;;;;;;;28.70;22.90;;;11.00;99.90;;;;;;5053269;28;20458;-75
2023/02/22 11:24:22;;;;;;;27.50;21.97;;;11.00;99.90;;;;;;5053141;28;20935;-75
2023/02/22 11:26:53;;;;;;;28.97;22.57;;;11.00;99.90;;;;;;5053278;28;20850;-75
2023/02/22 11:29:26;;;;;;;28.07;22.60;;;11.10;99.90;;;;;;5053087;28;20503;-75
2023/02/22 11:31:55;;;;;;;26.13;20.73;;;11.20;99.90;;;;;;5051782;28;20998;-75
2023/02/22 11:34:32;;;;;;;25.93;20.90;;;11.20;99.90;;;;;;5053186;28;20430;-75
2023/02/22 11:37:16;;;;;;;28.63;20.97;;;11.30;99.90;;;;;;5051994;28;20444;-76
2023/02/22 11:39:45;;;;;;;30.60;22.63;;;11.40;99.90;;;;;;5051891;28;20438;-74
2023/02/22 11:42:23;;;;;;;26.23;21.77;;;11.40;99.90;;;;;;5052862;28;20978;-76
2023/02/22 11:45:09;;;;;;;28.90;22.47;;;11.50;99.90;;;;;;5053322;28;20781;-75
2023/02/22 11:47:51;;;;;;;26.90;22.20;;;11.50;99.90;;;;;;5053012;28;20422;-75
2023/02/22 11:50:33;;;;;;;24.47;21.17;;;11.60;99.90;;;;;;5051742;28;20431;-75
2023/02/22 11:53:25;;;;;;;27.67;21.77;;;11.60;99.90;;;;;;5053276;28;20450;-75
2023/02/22 11:56:06;;;;;;;24.80;21.57;;;11.70;99.90;;;;;;5051634;28;20445;-74
2023/02/22 11:58:43;;;;;;;26.80;22.27;;;11.70;99.90;;;;;;5051585;28;20500;-76
2023/02/22 12:01:22;;;;;;;30.80;22.93;;;11.80;99.90;;;;;;5051585;28;20465;-74
2023/02/22 12:04:23;;;;;;;29.63;22.23;;;11.80;99.90;;;;;;5053144;28;20509;-75
2023/02/22 12:07:07;;;;;;;28.03;21.80;;;11.90;99.90;;;;;;5052815;28;20418;-75
2023/02/22 12:09:41;;;;;;;28.70;22.47;;;11.90;99.90;;;;;;5051477;28;20539;-75
2023/02/22 12:12:21;;;;;;;28.70;22.83;;;12.00;99.90;;;;;;5051599;28;20872;-76
2023/02/22 12:14:57;;;;;;;27.63;22.27;;;12.00;99.90;;;;;;5053108;28;20432;-75
2023/02/22 12:17:42;;;;;;;27.30;21.83;;;12.00;99.90;;;;;;5053050;28;20786;-76
2023/02/22 12:20:24;;;;;;;30.77;23.70;;;12.10;99.90;;;;;;5051615;28;20439;-74
2023/02/22 12:23:02;;;;;;;28.60;22.67;;;12.10;99.90;;;;;;5051812;28;20450;-74
2023/02/22 12:25:36;;;;;;;27.03;22.30;;;12.10;99.90;;;;;;5051676;28;20548;-75
2023/02/22 12:28:15;;;;;;;27.40;21.30;;;12.20;99.90;;;;;;5056191;28;20782;-75
2023/02/22 12:31:00;;;;;;;27.10;22.10;;;12.20;99.90;;;;;;5056215;28;20465;-75
2023/02/22 12:33:37;;;;;;;29.73;25.07;;;12.20;99.90;;;;;;5056265;28;20830;-75
2023/02/22 12:36:14;;;;;;;30.13;24.07;;;12.20;99.90;;;;;;5054942;28;20541;-74
2023/02/22 12:38:48;;;;;;;23.73;21.20;;;12.30;99.90;;;;;;5054875;28;21006;-75
2023/02/22 12:41:26;;;;;;;26.97;22.07;;;12.30;99.90;;;;;;5054769;28;20461;-75
2023/02/22 12:43:59;;;;;;;27.23;20.73;;;12.40;99.90;;;;;;5054760;28;20446;-76
2023/02/22 12:46:34;;;;;;;27.00;21.73;;;12.40;99.90;;;;;;5056252;28;20891;-74
2023/02/22 12:49:12;;;;;;;26.30;22.50;;;12.50;99.90;;;;;;5056344;28;20521;-75
2023/02/22 12:51:48;;;;;;;27.23;23.70;;;12.50;99.90;;;;;;5054690;28;20479;-75
2023/02/22 12:54:24;;;;;;;29.50;24.50;;;12.50;99.90;;;;;;5055980;28;20422;-74
2023/02/22 12:56:57;;;;;;;29.00;22.60;;;12.60;99.90;;;;;;5056650;28;20881;-75
2023/02/22 12:59:31;;;;;;;26.90;22.67;;;12.60;99.90;;;;;;5054667;28;20438;-74
2023/02/22 13:02:11;;;;;;;26.00;21.80;;;12.70;99.90;;;;;;5055953;28;20457;-75